sensor_id;sensor_type;location;lat;lon;timestamp;noise_LAeq;noise_LA_min;noise_LA_max;noise_LA01;noise_LA95
72858;Laerm;62742;52.136;4.500;2023-07-30T00:00:21;64.75;47.55;67.46;;
72858;Laerm;62742;52.136;4.500;2023-07-30T00:02:47;64.93;51.18;67.13;;
72858;Laerm;62742;52.136;4.500;2023-07-30T00:05:14;63.30;48.90;66.99;;
72858;Laerm;62742;52.136;4.500;2023-07-30T00:07:40;64.72;47.72;67.74;;
72858;Laerm;62742;52.136;4.500;2023-07-30T00:10:07;64.50;49.28;67.78;;
72858;Laerm;62742;52.136;4.500;2023-07-30T00:12:34;64.39;51.24;67.23;;
72858;Laerm;62742;52.136;4.500;2023-07-30T00:15:00;64.34;48.66;67.09;;
72858;Laerm;62742;52.136;4.500;2023-07-30T00:17:27;63.94;48.59;67.28;;
72858;Laerm;62742;52.136;4.500;2023-07-30T00:19:53;64.85;48.69;68.21;;
72858;Laerm;62742;52.136;4.500;2023-07-30T00:22:20;62.82;46.71;67.12;;
72858;Laerm;62742;52.136;4.500;2023-07-30T00:24:46;55.33;46.04;64.40;;
72858;Laerm;62742;52.136;4.500;2023-07-30T00:27:13;56.97;46.82;64.26;;
72858;Laerm;62742;52.136;4.500;2023-07-30T00:29:39;58.94;47.18;64.28;;
72858;Laerm;62742;52.136;4.500;2023-07-30T00:32:06;56.02;45.42;64.01;;
72858;Laerm;62742;52.136;4.500;2023-07-30T00:34:32;48.30;45.11;62.33;;
72858;Laerm;62742;52.136;4.500;2023-07-30T00:36:59;48.59;45.59;58.90;;
72858;Laerm;62742;52.136;4.500;2023-07-30T00:39:28;48.69;45.76;58.35;;
72858;Laerm;62742;52.136;4.500;2023-07-30T00:41:55;48.53;45.89;55.91;;
72858;Laerm;62742;52.136;4.500;2023-07-30T00:44:21;48.43;45.43;58.92;;
72858;Laerm;62742;52.136;4.500;2023-07-30T00:46:48;48.42;45.72;58.61;;
72858;Laerm;62742;52.136;4.500;2023-07-30T00:49:15;48.77;45.71;61.14;;
72858;Laerm;62742;52.136;4.500;2023-07-30T00:51:42;48.57;45.47;58.73;;
72858;Laerm;62742;52.136;4.500;2023-07-30T00:54:12;48.43;45.48;60.38;;
72858;Laerm;62742;52.136;4.500;2023-07-30T00:56:48;48.56;45.59;58.90;;
72858;Laerm;62742;52.136;4.500;2023-07-30T00:59:16;48.42;45.40;59.97;;
72858;Laerm;62742;52.136;4.500;2023-07-30T01:01:46;48.49;45.65;59.88;;
72858;Laerm;62742;52.136;4.500;2023-07-30T01:04:16;48.33;45.63;59.00;;
72858;Laerm;62742;52.136;4.500;2023-07-30T01:06:43;48.57;45.73;58.74;;
72858;Laerm;62742;52.136;4.500;2023-07-30T01:09:11;48.63;45.33;60.67;;
72858;Laerm;62742;52.136;4.500;2023-07-30T01:11:39;48.44;45.97;58.50;;
72858;Laerm;62742;52.136;4.500;2023-07-30T01:14:09;48.19;45.56;61.16;;
72858;Laerm;62742;52.136;4.500;2023-07-30T01:16:36;48.43;45.54;60.81;;
72858;Laerm;62742;52.136;4.500;2023-07-30T01:19:03;48.44;45.88;56.14;;
72858;Laerm;62742;52.136;4.500;2023-07-30T01:21:35;48.25;45.38;58.97;;
72858;Laerm;62742;52.136;4.500;2023-07-30T01:24:02;48.22;45.76;56.22;;
72858;Laerm;62742;52.136;4.500;2023-07-30T01:26:41;48.50;45.67;59.98;;
72858;Laerm;62742;52.136;4.500;2023-07-30T01:29:18;48.54;45.82;60.81;;
72858;Laerm;62742;52.136;4.500;2023-07-30T01:31:56;48.43;45.54;60.00;;
72858;Laerm;62742;52.136;4.500;2023-07-30T01:34:27;48.45;45.28;61.56;;
72858;Laerm;62742;52.136;4.500;2023-07-30T01:36:56;48.29;44.89;59.80;;
72858;Laerm;62742;52.136;4.500;2023-07-30T01:39:24;48.55;45.59;60.19;;
72858;Laerm;62742;52.136;4.500;2023-07-30T01:41:54;48.49;44.99;60.11;;
72858;Laerm;62742;52.136;4.500;2023-07-30T01:44:21;48.54;45.80;62.48;;
72858;Laerm;62742;52.136;4.500;2023-07-30T01:46:47;48.34;45.17;57.23;;
72858;Laerm;62742;52.136;4.500;2023-07-30T01:49:14;48.23;45.48;59.53;;
72858;Laerm;62742;52.136;4.500;2023-07-30T01:51:40;48.29;45.60;61.44;;
72858;Laerm;62742;52.136;4.500;2023-07-30T01:54:07;48.33;46.03;56.32;;
72858;Laerm;62742;52.136;4.500;2023-07-30T01:56:33;48.39;45.86;59.75;;
72858;Laerm;62742;52.136;4.500;2023-07-30T01:58:59;48.50;45.96;59.73;;
72858;Laerm;62742;52.136;4.500;2023-07-30T02:01:26;48.47;45.68;62.24;;
72858;Laerm;62742;52.136;4.500;2023-07-30T02:03:52;48.12;45.31;58.96;;
72858;Laerm;62742;52.136;4.500;2023-07-30T02:06:19;48.09;45.25;57.01;;
72858;Laerm;62742;52.136;4.500;2023-07-30T02:08:45;48.12;45.44;60.89;;
72858;Laerm;62742;52.136;4.500;2023-07-30T02:11:12;48.36;45.73;56.66;;
72858;Laerm;62742;52.136;4.500;2023-07-30T02:13:38;48.53;45.70;61.69;;
72858;Laerm;62742;52.136;4.500;2023-07-30T02:16:05;48.45;45.13;59.92;;
72858;Laerm;62742;52.136;4.500;2023-07-30T02:18:31;48.30;45.88;58.97;;
72858;Laerm;62742;52.136;4.500;2023-07-30T02:20:57;48.44;45.57;58.93;;
72858;Laerm;62742;52.136;4.500;2023-07-30T02:23:24;48.23;45.12;59.40;;
72858;Laerm;62742;52.136;4.500;2023-07-30T02:25:51;48.20;45.56;59.09;;
72858;Laerm;62742;52.136;4.500;2023-07-30T02:28:17;48.56;45.28;60.71;;
72858;Laerm;62742;52.136;4.500;2023-07-30T02:30:43;48.13;45.59;61.12;;
72858;Laerm;62742;52.136;4.500;2023-07-30T02:33:10;48.21;45.49;58.50;;
72858;Laerm;62742;52.136;4.500;2023-07-30T02:35:36;48.74;46.23;57.24;;
72858;Laerm;62742;52.136;4.500;2023-07-30T02:38:03;48.36;45.63;56.65;;
72858;Laerm;62742;52.136;4.500;2023-07-30T02:40:31;48.38;45.23;59.78;;
72858;Laerm;62742;52.136;4.500;2023-07-30T02:42:57;48.49;45.51;60.14;;
72858;Laerm;62742;52.136;4.500;2023-07-30T02:45:24;48.27;45.02;58.05;;
72858;Laerm;62742;52.136;4.500;2023-07-30T02:47:50;48.17;44.83;60.31;;
72858;Laerm;62742;52.136;4.500;2023-07-30T02:50:17;48.19;45.36;59.18;;
72858;Laerm;62742;52.136;4.500;2023-07-30T02:52:43;48.18;45.60;56.08;;
72858;Laerm;62742;52.136;4.500;2023-07-30T02:55:10;48.09;45.61;56.04;;
72858;Laerm;62742;52.136;4.500;2023-07-30T02:57:36;47.73;45.41;56.26;;
72858;Laerm;62742;52.136;4.500;2023-07-30T03:00:04;47.49;44.52;55.09;;
72858;Laerm;62742;52.136;4.500;2023-07-30T03:02:30;47.95;45.35;58.42;;
72858;Laerm;62742;52.136;4.500;2023-07-30T03:04:57;48.05;45.29;56.02;;
72858;Laerm;62742;52.136;4.500;2023-07-30T03:07:23;48.13;44.53;58.64;;
72858;Laerm;62742;52.136;4.500;2023-07-30T03:09:50;48.20;45.36;55.92;;
72858;Laerm;62742;52.136;4.500;2023-07-30T03:12:16;48.21;44.96;59.30;;
72858;Laerm;62742;52.136;4.500;2023-07-30T03:14:43;48.23;44.81;60.40;;
72858;Laerm;62742;52.136;4.500;2023-07-30T03:17:10;48.03;44.99;58.37;;
72858;Laerm;62742;52.136;4.500;2023-07-30T03:19:37;47.92;45.33;57.87;;
72858;Laerm;62742;52.136;4.500;2023-07-30T03:22:04;48.23;44.97;60.13;;
72858;Laerm;62742;52.136;4.500;2023-07-30T03:24:30;48.11;45.61;55.44;;
72858;Laerm;62742;52.136;4.500;2023-07-30T03:26:57;48.07;45.46;56.30;;
72858;Laerm;62742;52.136;4.500;2023-07-30T03:29:23;48.10;45.31;56.14;;
72858;Laerm;62742;52.136;4.500;2023-07-30T03:31:50;47.97;45.64;55.41;;
72858;Laerm;62742;52.136;4.500;2023-07-30T03:34:16;48.04;45.48;55.23;;
72858;Laerm;62742;52.136;4.500;2023-07-30T03:36:42;48.58;45.93;55.97;;
72858;Laerm;62742;52.136;4.500;2023-07-30T03:39:09;48.71;45.76;56.43;;
72858;Laerm;62742;52.136;4.500;2023-07-30T03:41:36;48.60;45.24;55.79;;
72858;Laerm;62742;52.136;4.500;2023-07-30T03:44:03;48.32;45.86;55.91;;
72858;Laerm;62742;52.136;4.500;2023-07-30T03:46:29;48.67;45.84;56.32;;
72858;Laerm;62742;52.136;4.500;2023-07-30T03:48:56;48.68;44.44;59.76;;
72858;Laerm;62742;52.136;4.500;2023-07-30T03:51:22;48.58;44.26;59.75;;
72858;Laerm;62742;52.136;4.500;2023-07-30T03:53:49;48.43;45.14;55.63;;
72858;Laerm;62742;52.136;4.500;2023-07-30T03:56:15;48.40;45.66;55.94;;
72858;Laerm;62742;52.136;4.500;2023-07-30T03:58:42;47.95;45.03;54.68;;
72858;Laerm;62742;52.136;4.500;2023-07-30T04:01:08;48.00;45.36;55.18;;
72858;Laerm;62742;52.136;4.500;2023-07-30T04:03:38;47.91;44.97;54.93;;
72858;Laerm;62742;52.136;4.500;2023-07-30T04:06:04;48.12;44.57;54.81;;
72858;Laerm;62742;52.136;4.500;2023-07-30T04:08:31;48.06;45.32;54.38;;
72858;Laerm;62742;52.136;4.500;2023-07-30T04:10:57;47.92;45.34;54.86;;
72858;Laerm;62742;52.136;4.500;2023-07-30T04:13:23;47.99;44.86;50.83;;
72858;Laerm;62742;52.136;4.500;2023-07-30T04:15:50;47.98;45.32;50.46;;
72858;Laerm;62742;52.136;4.500;2023-07-30T04:18:17;48.12;45.64;54.87;;
72858;Laerm;62742;52.136;4.500;2023-07-30T04:20:46;48.12;45.66;53.22;;
72858;Laerm;62742;52.136;4.500;2023-07-30T04:23:13;48.37;45.90;51.17;;
72858;Laerm;62742;52.136;4.500;2023-07-30T04:25:39;48.42;45.54;55.40;;
72858;Laerm;62742;52.136;4.500;2023-07-30T04:28:07;48.04;45.06;50.82;;
72858;Laerm;62742;52.136;4.500;2023-07-30T04:30:35;48.25;45.27;53.69;;
72858;Laerm;62742;52.136;4.500;2023-07-30T04:33:01;48.17;44.95;55.78;;
72858;Laerm;62742;52.136;4.500;2023-07-30T04:35:28;48.38;44.93;56.43;;
72858;Laerm;62742;52.136;4.500;2023-07-30T04:37:54;49.00;46.21;54.94;;
72858;Laerm;62742;52.136;4.500;2023-07-30T04:40:21;48.70;45.61;54.02;;
72858;Laerm;62742;52.136;4.500;2023-07-30T04:42:47;48.60;45.46;55.55;;
72858;Laerm;62742;52.136;4.500;2023-07-30T04:45:14;48.73;45.83;51.74;;
72858;Laerm;62742;52.136;4.500;2023-07-30T04:47:40;48.80;46.08;55.72;;
72858;Laerm;62742;52.136;4.500;2023-07-30T04:50:07;49.18;46.85;55.20;;
72858;Laerm;62742;52.136;4.500;2023-07-30T04:52:33;48.89;46.15;54.46;;
72858;Laerm;62742;52.136;4.500;2023-07-30T04:55:00;48.63;45.63;56.01;;
72858;Laerm;62742;52.136;4.500;2023-07-30T04:57:26;48.56;45.56;55.90;;
72858;Laerm;62742;52.136;4.500;2023-07-30T04:59:53;48.62;45.82;55.61;;
72858;Laerm;62742;52.136;4.500;2023-07-30T05:02:20;48.70;46.25;55.63;;
72858;Laerm;62742;52.136;4.500;2023-07-30T05:04:46;48.43;46.01;56.12;;
72858;Laerm;62742;52.136;4.500;2023-07-30T05:07:13;48.68;45.01;56.22;;
72858;Laerm;62742;52.136;4.500;2023-07-30T05:09:39;48.61;45.94;59.18;;
72858;Laerm;62742;52.136;4.500;2023-07-30T05:12:06;48.76;45.98;52.41;;
72858;Laerm;62742;52.136;4.500;2023-07-30T05:14:32;48.57;46.20;53.12;;
72858;Laerm;62742;52.136;4.500;2023-07-30T05:16:59;48.53;45.96;54.91;;
72858;Laerm;62742;52.136;4.500;2023-07-30T05:19:25;48.73;46.03;51.44;;
72858;Laerm;62742;52.136;4.500;2023-07-30T05:21:52;48.72;46.05;56.03;;
72858;Laerm;62742;52.136;4.500;2023-07-30T05:24:18;48.67;45.97;55.19;;
72858;Laerm;62742;52.136;4.500;2023-07-30T05:26:45;48.35;45.80;55.59;;
72858;Laerm;62742;52.136;4.500;2023-07-30T05:29:11;48.44;45.85;55.88;;
72858;Laerm;62742;52.136;4.500;2023-07-30T05:31:38;48.37;45.57;55.62;;
72858;Laerm;62742;52.136;4.500;2023-07-30T05:34:04;48.70;45.90;52.01;;
72858;Laerm;62742;52.136;4.500;2023-07-30T05:36:31;48.73;46.30;54.82;;
72858;Laerm;62742;52.136;4.500;2023-07-30T05:38:58;48.46;44.53;59.16;;
72858;Laerm;62742;52.136;4.500;2023-07-30T05:41:25;49.03;45.80;57.90;;
72858;Laerm;62742;52.136;4.500;2023-07-30T05:43:51;48.81;46.08;55.67;;
72858;Laerm;62742;52.136;4.500;2023-07-30T05:46:18;48.84;46.18;55.94;;
72858;Laerm;62742;52.136;4.500;2023-07-30T05:48:44;48.90;46.49;55.40;;
72858;Laerm;62742;52.136;4.500;2023-07-30T05:51:10;48.77;45.94;55.06;;
72858;Laerm;62742;52.136;4.500;2023-07-30T05:53:37;49.07;46.00;58.20;;
72858;Laerm;62742;52.136;4.500;2023-07-30T05:56:04;48.80;46.41;54.29;;
72858;Laerm;62742;52.136;4.500;2023-07-30T05:58:30;49.22;46.47;55.57;;
72858;Laerm;62742;52.136;4.500;2023-07-30T06:00:57;48.81;44.90;54.91;;
72858;Laerm;62742;52.136;4.500;2023-07-30T06:03:26;49.10;46.40;55.27;;
72858;Laerm;62742;52.136;4.500;2023-07-30T06:05:52;48.81;44.50;57.44;;
72858;Laerm;62742;52.136;4.500;2023-07-30T06:08:19;48.69;45.11;59.02;;
72858;Laerm;62742;52.136;4.500;2023-07-30T06:10:47;49.00;46.68;55.90;;
72858;Laerm;62742;52.136;4.500;2023-07-30T06:13:13;48.84;46.33;51.28;;
72858;Laerm;62742;52.136;4.500;2023-07-30T06:15:40;48.84;46.25;54.01;;
72858;Laerm;62742;52.136;4.500;2023-07-30T06:18:06;48.84;46.56;54.24;;
72858;Laerm;62742;52.136;4.500;2023-07-30T06:20:32;48.48;45.83;55.32;;
72858;Laerm;62742;52.136;4.500;2023-07-30T06:22:59;48.36;45.84;55.91;;
72858;Laerm;62742;52.136;4.500;2023-07-30T06:25:25;48.63;46.00;55.37;;
72858;Laerm;62742;52.136;4.500;2023-07-30T06:27:52;48.73;46.15;55.04;;
72858;Laerm;62742;52.136;4.500;2023-07-30T06:30:18;48.58;45.51;55.08;;
72858;Laerm;62742;52.136;4.500;2023-07-30T06:32:45;48.61;45.70;54.52;;
72858;Laerm;62742;52.136;4.500;2023-07-30T06:35:11;48.77;46.03;55.64;;
72858;Laerm;62742;52.136;4.500;2023-07-30T06:37:37;48.43;45.46;54.62;;
72858;Laerm;62742;52.136;4.500;2023-07-30T06:40:05;48.42;45.19;55.58;;
72858;Laerm;62742;52.136;4.500;2023-07-30T06:42:32;48.39;45.52;55.63;;
72858;Laerm;62742;52.136;4.500;2023-07-30T06:44:59;48.57;45.82;55.60;;
72858;Laerm;62742;52.136;4.500;2023-07-30T06:47:26;48.58;46.09;55.99;;
72858;Laerm;62742;52.136;4.500;2023-07-30T06:49:52;48.59;45.33;53.43;;
72858;Laerm;62742;52.136;4.500;2023-07-30T06:52:19;48.83;46.17;58.13;;
72858;Laerm;62742;52.136;4.500;2023-07-30T06:54:46;48.56;45.61;50.97;;
72858;Laerm;62742;52.136;4.500;2023-07-30T06:57:13;48.68;46.14;54.95;;
72858;Laerm;62742;52.136;4.500;2023-07-30T06:59:39;48.96;46.42;51.96;;
72858;Laerm;62742;52.136;4.500;2023-07-30T07:02:06;48.79;46.24;54.56;;
72858;Laerm;62742;52.136;4.500;2023-07-30T07:04:33;48.68;45.65;55.23;;
72858;Laerm;62742;52.136;4.500;2023-07-30T07:06:59;48.62;45.23;58.62;;
72858;Laerm;62742;52.136;4.500;2023-07-30T07:09:29;48.83;46.18;54.84;;
72858;Laerm;62742;52.136;4.500;2023-07-30T07:11:57;48.71;46.04;55.75;;
72858;Laerm;62742;52.136;4.500;2023-07-30T07:14:23;48.55;45.61;56.06;;
72858;Laerm;62742;52.136;4.500;2023-07-30T07:16:51;48.83;46.18;55.74;;
72858;Laerm;62742;52.136;4.500;2023-07-30T07:19:18;48.71;45.77;56.26;;
72858;Laerm;62742;52.136;4.500;2023-07-30T07:21:44;48.28;45.94;56.32;;
72858;Laerm;62742;52.136;4.500;2023-07-30T07:24:11;48.22;45.67;56.53;;
72858;Laerm;62742;52.136;4.500;2023-07-30T07:26:37;47.96;45.41;56.49;;
72858;Laerm;62742;52.136;4.500;2023-07-30T07:29:03;48.11;45.83;55.98;;
72858;Laerm;62742;52.136;4.500;2023-07-30T07:31:33;48.11;44.73;58.53;;
72858;Laerm;62742;52.136;4.500;2023-07-30T07:33:59;48.19;45.25;59.43;;
72858;Laerm;62742;52.136;4.500;2023-07-30T07:36:25;48.32;45.74;56.37;;
72858;Laerm;62742;52.136;4.500;2023-07-30T07:38:52;48.44;46.11;55.39;;
72858;Laerm;62742;52.136;4.500;2023-07-30T07:41:18;48.33;45.57;56.25;;
72858;Laerm;62742;52.136;4.500;2023-07-30T07:43:47;48.43;45.80;56.48;;
72858;Laerm;62742;52.136;4.500;2023-07-30T07:46:13;48.78;46.28;55.80;;
72858;Laerm;62742;52.136;4.500;2023-07-30T07:48:42;48.64;45.92;55.43;;
72858;Laerm;62742;52.136;4.500;2023-07-30T07:51:10;48.50;45.90;55.28;;
72858;Laerm;62742;52.136;4.500;2023-07-30T07:53:38;48.74;46.20;55.69;;
72858;Laerm;62742;52.136;4.500;2023-07-30T07:56:04;48.43;45.98;56.52;;
72858;Laerm;62742;52.136;4.500;2023-07-30T07:58:31;48.55;46.14;55.05;;
72858;Laerm;62742;52.136;4.500;2023-07-30T08:00:58;48.61;45.96;54.59;;
72858;Laerm;62742;52.136;4.500;2023-07-30T08:03:25;48.67;45.94;56.05;;
72858;Laerm;62742;52.136;4.500;2023-07-30T08:05:54;48.68;45.65;58.70;;
72858;Laerm;62742;52.136;4.500;2023-07-30T08:08:25;48.90;45.85;56.31;;
72858;Laerm;62742;52.136;4.500;2023-07-30T08:10:51;48.99;46.00;55.38;;
72858;Laerm;62742;52.136;4.500;2023-07-30T08:13:18;48.71;45.85;55.81;;
72858;Laerm;62742;52.136;4.500;2023-07-30T08:15:44;48.42;45.85;55.44;;
72858;Laerm;62742;52.136;4.500;2023-07-30T08:18:11;48.85;46.24;56.22;;
72858;Laerm;62742;52.136;4.500;2023-07-30T08:20:40;48.53;46.22;55.60;;
72858;Laerm;62742;52.136;4.500;2023-07-30T08:23:10;48.57;46.05;55.71;;
72858;Laerm;62742;52.136;4.500;2023-07-30T08:25:37;49.10;46.37;55.95;;
72858;Laerm;62742;52.136;4.500;2023-07-30T08:28:04;48.68;45.83;53.00;;
72858;Laerm;62742;52.136;4.500;2023-07-30T08:30:30;49.06;45.67;55.21;;
72858;Laerm;62742;52.136;4.500;2023-07-30T08:32:58;48.94;46.07;56.50;;
72858;Laerm;62742;52.136;4.500;2023-07-30T08:35:24;49.05;46.15;56.29;;
72858;Laerm;62742;52.136;4.500;2023-07-30T08:37:53;49.01;46.31;55.52;;
72858;Laerm;62742;52.136;4.500;2023-07-30T08:40:22;49.26;46.60;55.01;;
72858;Laerm;62742;52.136;4.500;2023-07-30T08:42:53;48.95;46.12;55.88;;
72858;Laerm;62742;52.136;4.500;2023-07-30T08:45:20;49.20;45.70;58.78;;
72858;Laerm;62742;52.136;4.500;2023-07-30T08:47:47;49.21;45.79;56.39;;
72858;Laerm;62742;52.136;4.500;2023-07-30T08:50:14;49.01;46.02;55.58;;
72858;Laerm;62742;52.136;4.500;2023-07-30T08:52:41;48.92;45.86;54.81;;
72858;Laerm;62742;52.136;4.500;2023-07-30T08:55:11;49.29;46.29;53.22;;
72858;Laerm;62742;52.136;4.500;2023-07-30T08:57:40;49.19;46.01;55.54;;
72858;Laerm;62742;52.136;4.500;2023-07-30T09:00:09;49.51;46.45;54.80;;
72858;Laerm;62742;52.136;4.500;2023-07-30T09:02:51;49.23;46.00;54.93;;
72858;Laerm;62742;52.136;4.500;2023-07-30T09:05:20;49.57;46.22;55.20;;
72858;Laerm;62742;52.136;4.500;2023-07-30T09:07:47;49.73;46.28;55.56;;
72858;Laerm;62742;52.136;4.500;2023-07-30T09:10:14;49.90;46.32;55.76;;
72858;Laerm;62742;52.136;4.500;2023-07-30T09:12:41;49.72;46.76;55.40;;
72858;Laerm;62742;52.136;4.500;2023-07-30T09:15:09;49.96;46.84;56.47;;
72858;Laerm;62742;52.136;4.500;2023-07-30T09:17:36;50.08;46.79;55.83;;
72858;Laerm;62742;52.136;4.500;2023-07-30T09:20:04;50.23;47.01;55.19;;
72858;Laerm;62742;52.136;4.500;2023-07-30T09:22:34;50.42;47.25;56.36;;
72858;Laerm;62742;52.136;4.500;2023-07-30T09:25:08;50.22;47.17;54.38;;
72858;Laerm;62742;52.136;4.500;2023-07-30T09:27:35;50.06;47.50;53.66;;
72858;Laerm;62742;52.136;4.500;2023-07-30T09:30:03;50.20;47.54;55.30;;
72858;Laerm;62742;52.136;4.500;2023-07-30T09:32:34;50.12;47.30;55.89;;
72858;Laerm;62742;52.136;4.500;2023-07-30T09:35:10;49.87;47.15;55.37;;
72858;Laerm;62742;52.136;4.500;2023-07-30T09:37:39;50.99;47.79;56.00;;
72858;Laerm;62742;52.136;4.500;2023-07-30T09:40:11;50.98;47.89;55.64;;
72858;Laerm;62742;52.136;4.500;2023-07-30T09:42:43;49.98;47.24;53.72;;
72858;Laerm;62742;52.136;4.500;2023-07-30T09:45:24;50.50;47.03;55.17;;
72858;Laerm;62742;52.136;4.500;2023-07-30T09:47:54;50.61;47.57;55.01;;
72858;Laerm;62742;52.136;4.500;2023-07-30T09:50:22;50.42;47.14;55.48;;
72858;Laerm;62742;52.136;4.500;2023-07-30T09:52:49;49.81;47.28;55.56;;
72858;Laerm;62742;52.136;4.500;2023-07-30T09:55:16;49.88;47.06;53.64;;
72858;Laerm;62742;52.136;4.500;2023-07-30T09:57:44;49.60;47.04;54.75;;
72858;Laerm;62742;52.136;4.500;2023-07-30T10:00:11;49.77;46.49;55.73;;
72858;Laerm;62742;52.136;4.500;2023-07-30T10:02:44;50.41;47.12;55.55;;
72858;Laerm;62742;52.136;4.500;2023-07-30T10:05:16;50.61;47.91;54.82;;
72858;Laerm;62742;52.136;4.500;2023-07-30T10:07:57;50.49;48.00;55.37;;
72858;Laerm;62742;52.136;4.500;2023-07-30T10:10:29;50.25;46.66;55.21;;
72858;Laerm;62742;52.136;4.500;2023-07-30T10:13:00;49.91;47.02;55.52;;
72858;Laerm;62742;52.136;4.500;2023-07-30T10:15:26;49.97;47.20;53.90;;
72858;Laerm;62742;52.136;4.500;2023-07-30T10:17:56;56.99;46.97;67.31;;
72858;Laerm;62742;52.136;4.500;2023-07-30T10:20:26;65.83;52.17;68.51;;
72858;Laerm;62742;52.136;4.500;2023-07-30T10:22:55;66.22;54.17;68.46;;
72858;Laerm;62742;52.136;4.500;2023-07-30T10:25:48;65.79;47.95;68.91;;
72858;Laerm;62742;52.136;4.500;2023-07-30T10:30:58;49.79;47.47;54.61;;
72858;Laerm;62742;52.136;4.500;2023-07-30T10:36:12;49.96;46.86;56.15;;
72858;Laerm;62742;52.136;4.500;2023-07-30T10:38:39;50.10;47.36;56.21;;
72858;Laerm;62742;52.136;4.500;2023-07-30T10:41:15;49.80;47.35;55.87;;
72858;Laerm;62742;52.136;4.500;2023-07-30T10:43:51;49.92;47.31;56.37;;
72858;Laerm;62742;52.136;4.500;2023-07-30T10:46:20;49.80;46.73;53.02;;
72858;Laerm;62742;52.136;4.500;2023-07-30T10:48:48;49.69;46.84;54.26;;
72858;Laerm;62742;52.136;4.500;2023-07-30T10:51:18;49.65;47.04;56.19;;
72858;Laerm;62742;52.136;4.500;2023-07-30T10:53:47;49.62;47.12;55.34;;
72858;Laerm;62742;52.136;4.500;2023-07-30T10:56:22;49.81;47.52;55.67;;
72858;Laerm;62742;52.136;4.500;2023-07-30T10:58:54;49.67;46.77;55.64;;
72858;Laerm;62742;52.136;4.500;2023-07-30T11:01:25;49.57;46.82;55.74;;
72858;Laerm;62742;52.136;4.500;2023-07-30T11:03:52;50.37;47.49;55.89;;
72858;Laerm;62742;52.136;4.500;2023-07-30T11:06:25;49.82;47.06;55.55;;
72858;Laerm;62742;52.136;4.500;2023-07-30T11:08:52;49.52;46.38;56.34;;
72858;Laerm;62742;52.136;4.500;2023-07-30T11:11:19;49.26;46.46;56.53;;
72858;Laerm;62742;52.136;4.500;2023-07-30T11:13:47;49.50;45.36;54.79;;
72858;Laerm;62742;52.136;4.500;2023-07-30T11:16:15;49.70;46.34;57.63;;
72858;Laerm;62742;52.136;4.500;2023-07-30T11:18:44;50.01;47.44;56.36;;
72858;Laerm;62742;52.136;4.500;2023-07-30T11:21:13;50.09;47.48;54.57;;
72858;Laerm;62742;52.136;4.500;2023-07-30T11:23:42;50.12;47.64;55.99;;
72858;Laerm;62742;52.136;4.500;2023-07-30T11:26:16;50.52;47.82;56.32;;
72858;Laerm;62742;52.136;4.500;2023-07-30T11:28:44;50.30;47.74;52.86;;
72858;Laerm;62742;52.136;4.500;2023-07-30T11:31:18;50.14;47.24;56.76;;
72858;Laerm;62742;52.136;4.500;2023-07-30T11:33:53;50.03;47.41;56.37;;
72858;Laerm;62742;52.136;4.500;2023-07-30T11:36:25;50.47;47.75;55.86;;
72858;Laerm;62742;52.136;4.500;2023-07-30T11:38:54;50.00;47.07;54.91;;
72858;Laerm;62742;52.136;4.500;2023-07-30T11:41:23;50.00;47.38;54.29;;
72858;Laerm;62742;52.136;4.500;2023-07-30T11:43:51;50.47;47.80;56.15;;
72858;Laerm;62742;52.136;4.500;2023-07-30T11:46:18;50.54;47.93;54.41;;
72858;Laerm;62742;52.136;4.500;2023-07-30T11:48:51;49.88;46.85;53.62;;
72858;Laerm;62742;52.136;4.500;2023-07-30T11:51:24;50.37;47.55;55.80;;
72858;Laerm;62742;52.136;4.500;2023-07-30T11:53:56;50.88;48.15;55.71;;
72858;Laerm;62742;52.136;4.500;2023-07-30T11:56:30;50.43;47.99;56.47;;
72858;Laerm;62742;52.136;4.500;2023-07-30T11:59:00;50.46;47.34;56.35;;
72858;Laerm;62742;52.136;4.500;2023-07-30T12:01:30;50.50;48.04;54.27;;
72858;Laerm;62742;52.136;4.500;2023-07-30T12:03:58;50.15;47.44;53.81;;
72858;Laerm;62742;52.136;4.500;2023-07-30T12:06:49;50.40;47.50;54.38;;
72858;Laerm;62742;52.136;4.500;2023-07-30T12:09:22;50.30;47.38;54.07;;
72858;Laerm;62742;52.136;4.500;2023-07-30T12:11:57;49.98;47.07;54.68;;
72858;Laerm;62742;52.136;4.500;2023-07-30T12:17:14;50.32;47.76;54.36;;
72858;Laerm;62742;52.136;4.500;2023-07-30T12:19:41;50.12;47.17;53.55;;
72858;Laerm;62742;52.136;4.500;2023-07-30T12:22:08;50.17;47.69;55.10;;
72858;Laerm;62742;52.136;4.500;2023-07-30T12:24:34;50.36;47.31;56.04;;
72858;Laerm;62742;52.136;4.500;2023-07-30T12:27:01;50.51;47.49;54.81;;
72858;Laerm;62742;52.136;4.500;2023-07-30T12:29:27;50.47;47.89;56.57;;
72858;Laerm;62742;52.136;4.500;2023-07-30T12:31:54;50.56;47.93;55.98;;
72858;Laerm;62742;52.136;4.500;2023-07-30T12:34:24;50.53;48.17;56.40;;
72858;Laerm;62742;52.136;4.500;2023-07-30T12:36:50;50.90;47.73;56.34;;
72858;Laerm;62742;52.136;4.500;2023-07-30T12:39:17;50.65;47.97;56.71;;
72858;Laerm;62742;52.136;4.500;2023-07-30T12:41:43;50.34;47.62;56.04;;
72858;Laerm;62742;52.136;4.500;2023-07-30T12:44:10;50.58;48.15;56.30;;
72858;Laerm;62742;52.136;4.500;2023-07-30T12:46:36;64.23;48.24;67.82;;
72858;Laerm;62742;52.136;4.500;2023-07-30T12:49:03;65.02;50.34;67.51;;
72858;Laerm;62742;52.136;4.500;2023-07-30T12:51:31;65.26;58.14;67.38;;
72858;Laerm;62742;52.136;4.500;2023-07-30T12:53:58;65.44;52.98;68.13;;
72858;Laerm;62742;52.136;4.500;2023-07-30T12:56:26;65.42;51.21;67.66;;
72858;Laerm;62742;52.136;4.500;2023-07-30T12:58:52;65.48;49.33;67.40;;
72858;Laerm;62742;52.136;4.500;2023-07-30T13:01:19;65.37;58.59;68.18;;
72858;Laerm;62742;52.136;4.500;2023-07-30T13:03:45;65.84;50.85;68.51;;
72858;Laerm;62742;52.136;4.500;2023-07-30T13:06:13;65.45;51.32;68.42;;
72858;Laerm;62742;52.136;4.500;2023-07-30T13:08:39;65.26;50.00;67.95;;
72858;Laerm;62742;52.136;4.500;2023-07-30T13:11:06;65.19;60.86;67.67;;
72858;Laerm;62742;52.136;4.500;2023-07-30T13:13:33;65.85;58.79;68.08;;
72858;Laerm;62742;52.136;4.500;2023-07-30T13:15:59;65.95;57.50;68.52;;
72858;Laerm;62742;52.136;4.500;2023-07-30T13:18:28;65.66;58.37;67.74;;
72858;Laerm;62742;52.136;4.500;2023-07-30T13:20:55;66.85;49.73;70.37;;
72858;Laerm;62742;52.136;4.500;2023-07-30T13:23:21;66.71;50.55;70.29;;
72858;Laerm;62742;52.136;4.500;2023-07-30T13:25:51;66.26;50.68;69.78;;
72858;Laerm;62742;52.136;4.500;2023-07-30T13:28:17;66.22;51.85;69.09;;
72858;Laerm;62742;52.136;4.500;2023-07-30T13:30:44;66.54;51.03;69.96;;
72858;Laerm;62742;52.136;4.500;2023-07-30T13:33:10;66.11;51.79;69.46;;
72858;Laerm;62742;52.136;4.500;2023-07-30T13:35:37;65.68;50.12;69.39;;
72858;Laerm;62742;52.136;4.500;2023-07-30T13:38:03;66.33;51.27;70.67;;
72858;Laerm;62742;52.136;4.500;2023-07-30T13:40:30;63.75;49.38;69.95;;
72858;Laerm;62742;52.136;4.500;2023-07-30T13:42:57;61.27;50.23;68.91;;
72858;Laerm;62742;52.136;4.500;2023-07-30T13:45:23;60.60;48.96;67.81;;
72858;Laerm;62742;52.136;4.500;2023-07-30T13:47:49;60.86;50.27;68.22;;
72858;Laerm;62742;52.136;4.500;2023-07-30T13:50:16;61.99;50.18;67.55;;
72858;Laerm;62742;52.136;4.500;2023-07-30T13:52:44;64.61;51.04;67.79;;
72858;Laerm;62742;52.136;4.500;2023-07-30T13:55:10;64.95;59.41;67.61;;